sensor_id;sensor_type;location;lat;lon;timestamp;P1;durP1;ratioP1;P2;durP2;ratioP2
14001;SDS011;7076;51.280;12.584;2023-08-17T00:01:40;5.82;;;5.32;;
14001;SDS011;7076;51.280;12.584;2023-08-17T00:06:45;6.00;;;5.35;;
14001;SDS011;7076;51.280;12.584;2023-08-17T00:11:48;5.82;;;5.32;;
14001;SDS011;7076;51.280;12.584;2023-08-17T00:16:52;5.85;;;5.35;;
14001;SDS011;7076;51.280;12.584;2023-08-17T00:21:56;8.95;;;5.45;;
14001;SDS011;7076;51.280;12.584;2023-08-17T00:26:59;6.00;;;5.43;;
14001;SDS011;7076;51.280;12.584;2023-08-17T00:32:02;6.18;;;5.05;;
14001;SDS011;7076;51.280;12.584;2023-08-17T00:37:07;5.97;;;5.28;;
14001;SDS011;7076;51.280;12.584;2023-08-17T00:42:10;5.75;;;5.15;;
14001;SDS011;7076;51.280;12.584;2023-08-17T00:47:12;7.40;;;5.15;;
14001;SDS011;7076;51.280;12.584;2023-08-17T00:52:17;5.20;;;4.70;;
14001;SDS011;7076;51.280;12.584;2023-08-17T00:57:20;5.95;;;5.05;;
14001;SDS011;7076;51.280;12.584;2023-08-17T01:02:24;5.22;;;4.72;;
14001;SDS011;7076;51.280;12.584;2023-08-17T01:07:28;6.93;;;4.60;;
14001;SDS011;7076;51.280;12.584;2023-08-17T01:12:32;6.85;;;4.30;;
14001;SDS011;7076;51.280;12.584;2023-08-17T01:17:37;6.20;;;4.80;;
14001;SDS011;7076;51.280;12.584;2023-08-17T01:22:47;7.03;;;4.45;;
14001;SDS011;7076;51.280;12.584;2023-08-17T01:27:52;7.07;;;4.32;;
14001;SDS011;7076;51.280;12.584;2023-08-17T01:32:56;7.55;;;4.60;;
14001;SDS011;7076;51.280;12.584;2023-08-17T01:38:04;4.53;;;4.13;;
14001;SDS011;7076;51.280;12.584;2023-08-17T01:43:11;4.82;;;4.20;;
14001;SDS011;7076;51.280;12.584;2023-08-17T01:48:14;5.55;;;4.35;;
14001;SDS011;7076;51.280;12.584;2023-08-17T01:53:17;4.97;;;4.18;;
14001;SDS011;7076;51.280;12.584;2023-08-17T01:58:22;6.03;;;4.47;;
14001;SDS011;7076;51.280;12.584;2023-08-17T02:03:24;4.13;;;3.72;;
14001;SDS011;7076;51.280;12.584;2023-08-17T02:08:30;6.68;;;3.72;;
14001;SDS011;7076;51.280;12.584;2023-08-17T02:13:34;4.30;;;3.95;;
14001;SDS011;7076;51.280;12.584;2023-08-17T02:18:39;5.13;;;4.22;;
14001;SDS011;7076;51.280;12.584;2023-08-17T02:23:42;3.88;;;3.58;;
14001;SDS011;7076;51.280;12.584;2023-08-17T02:28:46;5.15;;;4.20;;
14001;SDS011;7076;51.280;12.584;2023-08-17T02:33:49;5.82;;;4.78;;
14001;SDS011;7076;51.280;12.584;2023-08-17T02:38:52;6.22;;;4.65;;
14001;SDS011;7076;51.280;12.584;2023-08-17T02:43:56;5.30;;;4.72;;
14001;SDS011;7076;51.280;12.584;2023-08-17T02:48:58;5.88;;;5.32;;
14001;SDS011;7076;51.280;12.584;2023-08-17T02:54:01;5.18;;;4.70;;
14001;SDS011;7076;51.280;12.584;2023-08-17T02:59:06;4.13;;;3.72;;
14001;SDS011;7076;51.280;12.584;2023-08-17T03:04:09;1.73;;;1.40;;
14001;SDS011;7076;51.280;12.584;2023-08-17T03:09:11;1.27;;;0.90;;
14001;SDS011;7076;51.280;12.584;2023-08-17T03:14:16;1.88;;;0.90;;
14001;SDS011;7076;51.280;12.584;2023-08-17T03:19:18;3.70;;;0.70;;
14001;SDS011;7076;51.280;12.584;2023-08-17T03:24:21;0.50;;;0.50;;
14001;SDS011;7076;51.280;12.584;2023-08-17T03:29:26;0.55;;;0.55;;
14001;SDS011;7076;51.280;12.584;2023-08-17T03:34:29;0.85;;;0.73;;
14001;SDS011;7076;51.280;12.584;2023-08-17T03:39:34;2.08;;;0.63;;
14001;SDS011;7076;51.280;12.584;2023-08-17T03:44:39;0.47;;;0.47;;
14001;SDS011;7076;51.280;12.584;2023-08-17T03:49:42;1.33;;;1.23;;
14001;SDS011;7076;51.280;12.584;2023-08-17T03:54:45;1.25;;;0.60;;
14001;SDS011;7076;51.280;12.584;2023-08-17T03:59:49;0.65;;;0.50;;
14001;SDS011;7076;51.280;12.584;2023-08-17T04:04:52;0.50;;;0.50;;
14001;SDS011;7076;51.280;12.584;2023-08-17T04:09:55;0.60;;;0.60;;
14001;SDS011;7076;51.280;12.584;2023-08-17T04:14:59;0.50;;;0.50;;
14001;SDS011;7076;51.280;12.584;2023-08-17T04:20:03;0.77;;;0.55;;
14001;SDS011;7076;51.280;12.584;2023-08-17T04:25:07;0.90;;;0.60;;
14001;SDS011;7076;51.280;12.584;2023-08-17T04:30:15;0.80;;;0.70;;
14001;SDS011;7076;51.280;12.584;2023-08-17T04:35:29;3.85;;;1.08;;
14001;SDS011;7076;51.280;12.584;2023-08-17T04:40:34;1.15;;;0.90;;
14001;SDS011;7076;51.280;12.584;2023-08-17T04:45:43;1.30;;;0.70;;
14001;SDS011;7076;51.280;12.584;2023-08-17T04:50:54;3.90;;;0.90;;
14001;SDS011;7076;51.280;12.584;2023-08-17T04:55:59;1.90;;;0.95;;
14001;SDS011;7076;51.280;12.584;2023-08-17T05:01:11;6.90;;;1.08;;
14001;SDS011;7076;51.280;12.584;2023-08-17T05:06:18;5.22;;;1.42;;
14001;SDS011;7076;51.280;12.584;2023-08-17T05:11:26;6.63;;;1.10;;
14001;SDS011;7076;51.280;12.584;2023-08-17T05:16:33;5.28;;;0.80;;
14001;SDS011;7076;51.280;12.584;2023-08-17T05:43:50;2.70;;;0.70;;
14001;SDS011;7076;51.280;12.584;2023-08-17T06:02:10;2.25;;;1.20;;
14001;SDS011;7076;51.280;12.584;2023-08-17T06:14:47;2.85;;;1.50;;
14001;SDS011;7076;51.280;12.584;2023-08-17T06:19:57;3.00;;;2.15;;
14001;SDS011;7076;51.280;12.584;2023-08-17T06:25:04;5.88;;;2.22;;
14001;SDS011;7076;51.280;12.584;2023-08-17T06:30:18;7.75;;;2.17;;
14001;SDS011;7076;51.280;12.584;2023-08-17T06:41:34;3.47;;;2.60;;
14001;SDS011;7076;51.280;12.584;2023-08-17T06:52:17;3.33;;;3.03;;
14001;SDS011;7076;51.280;12.584;2023-08-17T06:57:27;3.17;;;2.80;;
14001;SDS011;7076;51.280;12.584;2023-08-17T07:02:32;4.35;;;3.72;;
14001;SDS011;7076;51.280;12.584;2023-08-17T07:07:51;5.20;;;3.60;;
14001;SDS011;7076;51.280;12.584;2023-08-17T07:12:57;8.48;;;3.78;;
14001;SDS011;7076;51.280;12.584;2023-08-17T07:18:04;4.65;;;3.47;;
14001;SDS011;7076;51.280;12.584;2023-08-17T07:23:08;4.65;;;4.10;;
14001;SDS011;7076;51.280;12.584;2023-08-17T07:28:13;6.15;;;3.65;;
14001;SDS011;7076;51.280;12.584;2023-08-17T07:33:16;4.57;;;4.03;;
14001;SDS011;7076;51.280;12.584;2023-08-17T07:38:19;5.55;;;4.38;;
14001;SDS011;7076;51.280;12.584;2023-08-17T07:43:24;7.38;;;6.68;;
14001;SDS011;7076;51.280;12.584;2023-08-17T07:48:27;4.93;;;4.43;;
14001;SDS011;7076;51.280;12.584;2023-08-17T07:53:34;4.43;;;4.13;;
14001;SDS011;7076;51.280;12.584;2023-08-17T07:58:39;5.18;;;4.40;;
14001;SDS011;7076;51.280;12.584;2023-08-17T08:03:42;4.78;;;4.35;;
14001;SDS011;7076;51.280;12.584;2023-08-17T08:08:45;4.72;;;4.18;;
14001;SDS011;7076;51.280;12.584;2023-08-17T08:13:49;5.43;;;4.60;;
14001;SDS011;7076;51.280;12.584;2023-08-17T08:18:54;5.20;;;4.47;;
14001;SDS011;7076;51.280;12.584;2023-08-17T08:24:01;6.13;;;4.85;;
14001;SDS011;7076;51.280;12.584;2023-08-17T08:29:08;6.35;;;4.78;;
14001;SDS011;7076;51.280;12.584;2023-08-17T08:34:11;6.03;;;4.97;;
14001;SDS011;7076;51.280;12.584;2023-08-17T08:39:24;6.13;;;4.93;;
14001;SDS011;7076;51.280;12.584;2023-08-17T09:10:29;7.10;;;6.28;;
14001;SDS011;7076;51.280;12.584;2023-08-17T09:15:38;10.70;;;8.10;;
14001;SDS011;7076;51.280;12.584;2023-08-17T09:20:42;8.35;;;5.65;;
14001;SDS011;7076;51.280;12.584;2023-08-17T09:25:50;8.18;;;5.22;;
14001;SDS011;7076;51.280;12.584;2023-08-17T09:30:59;6.65;;;5.85;;
14001;SDS011;7076;51.280;12.584;2023-08-17T09:36:05;6.20;;;5.60;;
14001;SDS011;7076;51.280;12.584;2023-08-17T09:41:09;10.32;;;8.88;;
14001;SDS011;7076;51.280;12.584;2023-08-17T09:46:15;9.80;;;6.18;;
14001;SDS011;7076;51.280;12.584;2023-08-17T09:51:18;8.85;;;5.80;;
14001;SDS011;7076;51.280;12.584;2023-08-17T09:56:22;6.63;;;6.03;;
14001;SDS011;7076;51.280;12.584;2023-08-17T10:01:26;8.73;;;6.88;;
14001;SDS011;7076;51.280;12.584;2023-08-17T10:06:30;8.75;;;7.82;;
14001;SDS011;7076;51.280;12.584;2023-08-17T10:11:36;8.98;;;6.47;;
14001;SDS011;7076;51.280;12.584;2023-08-17T10:16:41;6.07;;;5.57;;
14001;SDS011;7076;51.280;12.584;2023-08-17T10:21:48;6.38;;;5.78;;
14001;SDS011;7076;51.280;12.584;2023-08-17T10:26:56;7.03;;;6.32;;
14001;SDS011;7076;51.280;12.584;2023-08-17T10:31:59;6.45;;;5.85;;
14001;SDS011;7076;51.280;12.584;2023-08-17T10:37:02;9.20;;;6.10;;
14001;SDS011;7076;51.280;12.584;2023-08-17T10:42:07;7.45;;;6.05;;
14001;SDS011;7076;51.280;12.584;2023-08-17T10:47:20;6.35;;;5.57;;
14001;SDS011;7076;51.280;12.584;2023-08-17T10:52:28;7.28;;;6.13;;
14001;SDS011;7076;51.280;12.584;2023-08-17T10:57:36;7.38;;;6.65;;
14001;SDS011;7076;51.280;12.584;2023-08-17T11:02:43;7.63;;;6.15;;
14001;SDS011;7076;51.280;12.584;2023-08-17T11:07:47;6.38;;;5.78;;
14001;SDS011;7076;51.280;12.584;2023-08-17T11:12:54;7.28;;;6.57;;
14001;SDS011;7076;51.280;12.584;2023-08-17T11:17:58;7.00;;;6.40;;
14001;SDS011;7076;51.280;12.584;2023-08-17T11:23:02;8.82;;;6.32;;
14001;SDS011;7076;51.280;12.584;2023-08-17T11:28:16;7.18;;;5.93;;
14001;SDS011;7076;51.280;12.584;2023-08-17T11:33:21;6.10;;;5.50;;
14001;SDS011;7076;51.280;12.584;2023-08-17T11:38:31;5.95;;;5.35;;
14001;SDS011;7076;51.280;12.584;2023-08-17T11:43:38;8.15;;;5.43;;
14001;SDS011;7076;51.280;12.584;2023-08-17T12:03:14;5.80;;;5.30;;
14001;SDS011;7076;51.280;12.584;2023-08-17T12:08:21;5.60;;;5.10;;
14001;SDS011;7076;51.280;12.584;2023-08-17T12:14:07;7.93;;;4.85;;
14001;SDS011;7076;51.280;12.584;2023-08-17T12:19:20;7.18;;;4.60;;
14001;SDS011;7076;51.280;12.584;2023-08-17T12:24:25;4.50;;;3.80;;
14001;SDS011;7076;51.280;12.584;2023-08-17T12:29:29;5.38;;;4.38;;
14001;SDS011;7076;51.280;12.584;2023-08-17T12:34:33;4.97;;;4.55;;
14001;SDS011;7076;51.280;12.584;2023-08-17T12:39:36;5.07;;;4.13;;
14001;SDS011;7076;51.280;12.584;2023-08-17T12:50:09;5.32;;;4.50;;
14001;SDS011;7076;51.280;12.584;2023-08-17T12:55:13;6.05;;;4.95;;
14001;SDS011;7076;51.280;12.584;2023-08-17T13:00:19;7.07;;;4.00;;
14001;SDS011;7076;51.280;12.584;2023-08-17T13:05:28;5.60;;;4.07;;
14001;SDS011;7076;51.280;12.584;2023-08-17T13:10:31;5.50;;;5.05;;
14001;SDS011;7076;51.280;12.584;2023-08-17T13:15:34;4.57;;;4.20;;
14001;SDS011;7076;51.280;12.584;2023-08-17T13:33:28;3.90;;;3.60;;
14001;SDS011;7076;51.280;12.584;2023-08-17T13:44:39;3.80;;;3.10;;
14001;SDS011;7076;51.280;12.584;2023-08-17T13:49:42;3.75;;;3.45;;
14001;SDS011;7076;51.280;12.584;2023-08-17T13:54:46;3.90;;;3.60;;
14001;SDS011;7076;51.280;12.584;2023-08-17T13:59:51;3.72;;;3.28;;
14001;SDS011;7076;51.280;12.584;2023-08-17T14:19:09;7.43;;;4.32;;
14001;SDS011;7076;51.280;12.584;2023-08-17T14:24:12;6.13;;;4.50;;
14001;SDS011;7076;51.280;12.584;2023-08-17T14:29:15;5.47;;;4.97;;
14001;SDS011;7076;51.280;12.584;2023-08-17T14:34:20;5.40;;;4.80;;
14001;SDS011;7076;51.280;12.584;2023-08-17T14:39:26;7.97;;;5.57;;
14001;SDS011;7076;51.280;12.584;2023-08-17T14:44:29;5.90;;;5.13;;
14001;SDS011;7076;51.280;12.584;2023-08-17T14:49:33;8.15;;;5.15;;
14001;SDS011;7076;51.280;12.584;2023-08-17T14:54:36;6.45;;;5.15;;
14001;SDS011;7076;51.280;12.584;2023-08-17T14:59:44;6.82;;;5.35;;
14001;SDS011;7076;51.280;12.584;2023-08-17T15:04:48;6.05;;;5.38;;
14001;SDS011;7076;51.280;12.584;2023-08-17T15:09:51;6.28;;;5.68;;
14001;SDS011;7076;51.280;12.584;2023-08-17T15:14:55;7.35;;;5.43;;
14001;SDS011;7076;51.280;12.584;2023-08-17T15:19:59;6.10;;;5.28;;
14001;SDS011;7076;51.280;12.584;2023-08-17T15:25:02;7.30;;;5.45;;
14001;SDS011;7076;51.280;12.584;2023-08-17T15:30:06;11.18;;;9.98;;
14001;SDS011;7076;51.280;12.584;2023-08-17T15:35:12;17.42;;;15.60;;
14001;SDS011;7076;51.280;12.584;2023-08-17T15:40:15;15.27;;;6.25;;
14001;SDS011;7076;51.280;12.584;2023-08-17T15:45:18;6.50;;;5.80;;
14001;SDS011;7076;51.280;12.584;2023-08-17T15:50:23;7.10;;;6.50;;
14001;SDS011;7076;51.280;12.584;2023-08-17T15:55:26;6.90;;;6.20;;
14001;SDS011;7076;51.280;12.584;2023-08-17T16:00:29;6.32;;;5.22;;
14001;SDS011;7076;51.280;12.584;2023-08-17T16:05:34;6.07;;;5.50;;
14001;SDS011;7076;51.280;12.584;2023-08-17T16:10:37;7.82;;;5.75;;
14001;SDS011;7076;51.280;12.584;2023-08-17T16:15:40;8.68;;;7.05;;
14001;SDS011;7076;51.280;12.584;2023-08-17T16:20:44;6.22;;;5.47;;
14001;SDS011;7076;51.280;12.584;2023-08-17T16:25:47;5.60;;;5.10;;
14001;SDS011;7076;51.280;12.584;2023-08-17T16:30:50;6.10;;;5.35;;
14001;SDS011;7076;51.280;12.584;2023-08-17T16:35:54;6.25;;;5.65;;
14001;SDS011;7076;51.280;12.584;2023-08-17T16:40:57;10.23;;;5.47;;
14001;SDS011;7076;51.280;12.584;2023-08-17T16:46:00;9.35;;;6.07;;
14001;SDS011;7076;51.280;12.584;2023-08-17T16:51:04;13.50;;;12.15;;
14001;SDS011;7076;51.280;12.584;2023-08-17T16:56:07;6.03;;;5.45;;
14001;SDS011;7076;51.280;12.584;2023-08-17T17:01:11;7.07;;;5.70;;
14001;SDS011;7076;51.280;12.584;2023-08-17T17:06:17;7.13;;;6.13;;
14001;SDS011;7076;51.280;12.584;2023-08-17T17:11:20;6.82;;;5.88;;
14001;SDS011;7076;51.280;12.584;2023-08-17T17:16:23;7.97;;;7.15;;
14001;SDS011;7076;51.280;12.584;2023-08-17T17:21:28;7.70;;;6.05;;
14001;SDS011;7076;51.280;12.584;2023-08-17T17:26:31;6.00;;;5.40;;
14001;SDS011;7076;51.280;12.584;2023-08-17T17:31:37;6.35;;;5.65;;
14001;SDS011;7076;51.280;12.584;2023-08-17T17:36:42;8.60;;;5.90;;
14001;SDS011;7076;51.280;12.584;2023-08-17T17:41:45;8.07;;;6.43;;
14001;SDS011;7076;51.280;12.584;2023-08-17T17:46:49;7.30;;;6.03;;
14001;SDS011;7076;51.280;12.584;2023-08-17T17:51:54;6.75;;;6.15;;
14001;SDS011;7076;51.280;12.584;2023-08-17T17:56:57;6.75;;;6.05;;
14001;SDS011;7076;51.280;12.584;2023-08-17T18:02:01;7.82;;;6.47;;
14001;SDS011;7076;51.280;12.584;2023-08-17T18:07:05;7.30;;;6.60;;
14001;SDS011;7076;51.280;12.584;2023-08-17T18:12:08;6.88;;;6.28;;
14001;SDS011;7076;51.280;12.584;2023-08-17T18:17:11;6.57;;;6.00;;
14001;SDS011;7076;51.280;12.584;2023-08-17T18:22:16;6.72;;;6.07;;
14001;SDS011;7076;51.280;12.584;2023-08-17T18:27:19;6.93;;;6.32;;
14001;SDS011;7076;51.280;12.584;2023-08-17T18:32:23;6.97;;;6.38;;
14001;SDS011;7076;51.280;12.584;2023-08-17T18:37:27;7.35;;;6.75;;
14001;SDS011;7076;51.280;12.584;2023-08-17T18:42:30;7.18;;;6.38;;
14001;SDS011;7076;51.280;12.584;2023-08-17T18:47:33;7.47;;;6.30;;
14001;SDS011;7076;51.280;12.584;2023-08-17T18:52:37;7.68;;;6.93;;
14001;SDS011;7076;51.280;12.584;2023-08-17T18:57:40;7.82;;;7.13;;
14001;SDS011;7076;51.280;12.584;2023-08-17T19:02:43;8.60;;;7.75;;
14001;SDS011;7076;51.280;12.584;2023-08-17T19:07:47;8.07;;;7.28;;
14001;SDS011;7076;51.280;12.584;2023-08-17T19:12:50;8.50;;;7.20;;
14001;SDS011;7076;51.280;12.584;2023-08-17T19:17:53;8.18;;;7.43;;
14001;SDS011;7076;51.280;12.584;2023-08-17T19:22:58;7.25;;;6.50;;
14001;SDS011;7076;51.280;12.584;2023-08-17T19:28:01;8.40;;;7.15;;
14001;SDS011;7076;51.280;12.584;2023-08-17T19:33:04;6.95;;;6.25;;
14001;SDS011;7076;51.280;12.584;2023-08-17T19:38:08;6.97;;;6.00;;
14001;SDS011;7076;51.280;12.584;2023-08-17T19:43:11;6.00;;;5.50;;
14001;SDS011;7076;51.280;12.584;2023-08-17T19:48:14;4.93;;;4.53;;
14001;SDS011;7076;51.280;12.584;2023-08-17T19:53:18;3.95;;;3.65;;
14001;SDS011;7076;51.280;12.584;2023-08-17T19:58:22;5.10;;;4.60;;
14001;SDS011;7076;51.280;12.584;2023-08-17T20:03:25;5.75;;;5.15;;
14001;SDS011;7076;51.280;12.584;2023-08-17T20:08:29;7.10;;;5.57;;
14001;SDS011;7076;51.280;12.584;2023-08-17T20:13:32;6.13;;;5.53;;
14001;SDS011;7076;51.280;12.584;2023-08-17T20:18:35;6.50;;;5.93;;
14001;SDS011;7076;51.280;12.584;2023-08-17T20:23:39;6.53;;;5.80;;
14001;SDS011;7076;51.280;12.584;2023-08-17T20:28:44;5.88;;;5.30;;
14001;SDS011;7076;51.280;12.584;2023-08-17T20:33:48;6.85;;;6.20;;
14001;SDS011;7076;51.280;12.584;2023-08-17T20:38:52;7.57;;;6.32;;
14001;SDS011;7076;51.280;12.584;2023-08-17T20:43:55;7.82;;;7.10;;
14001;SDS011;7076;51.280;12.584;2023-08-17T20:48:57;8.00;;;7.20;;
14001;SDS011;7076;51.280;12.584;2023-08-17T20:54:02;8.18;;;7.28;;
14001;SDS011;7076;51.280;12.584;2023-08-17T20:59:05;7.90;;;6.95;;
14001;SDS011;7076;51.280;12.584;2023-08-17T21:04:08;7.82;;;7.03;;
14001;SDS011;7076;51.280;12.584;2023-08-17T21:09:12;7.63;;;6.93;;
14001;SDS011;7076;51.280;12.584;2023-08-17T21:14:17;9.52;;;7.07;;
14001;SDS011;7076;51.280;12.584;2023-08-17T21:19:20;7.82;;;7.13;;
14001;SDS011;7076;51.280;12.584;2023-08-17T21:24:25;8.68;;;6.85;;
14001;SDS011;7076;51.280;12.584;2023-08-17T21:29:28;7.03;;;6.25;;
14001;SDS011;7076;51.280;12.584;2023-08-17T21:34:31;6.35;;;5.85;;
14001;SDS011;7076;51.280;12.584;2023-08-17T21:39:35;7.88;;;6.43;;
14001;SDS011;7076;51.280;12.584;2023-08-17T21:44:38;6.20;;;5.60;;
14001;SDS011;7076;51.280;12.584;2023-08-17T21:49:41;6.60;;;5.90;;
14001;SDS011;7076;51.280;12.584;2023-08-17T21:54:47;7.65;;;6.28;;
14001;SDS011;7076;51.280;12.584;2023-08-17T21:59:50;8.20;;;5.60;;
14001;SDS011;7076;51.280;12.584;2023-08-17T22:04:53;6.30;;;5.70;;
14001;SDS011;7076;51.280;12.584;2023-08-17T22:09:58;6.97;;;6.38;;
14001;SDS011;7076;51.280;12.584;2023-08-17T22:15:01;7.13;;;6.53;;
14001;SDS011;7076;51.280;12.584;2023-08-17T22:20:04;7.05;;;6.45;;
14001;SDS011;7076;51.280;12.584;2023-08-17T22:25:09;7.18;;;6.47;;
14001;SDS011;7076;51.280;12.584;2023-08-17T22:30:12;6.40;;;5.65;;
14001;SDS011;7076;51.280;12.584;2023-08-17T22:35:15;7.85;;;5.60;;
14001;SDS011;7076;51.280;12.584;2023-08-17T22:40:19;6.85;;;6.25;;
14001;SDS011;7076;51.280;12.584;2023-08-17T22:45:22;7.55;;;6.07;;
14001;SDS011;7076;51.280;12.584;2023-08-17T22:50:25;11.70;;;6.47;;
14001;SDS011;7076;51.280;12.584;2023-08-17T22:55:29;9.25;;;5.85;;
14001;SDS011;7076;51.280;12.584;2023-08-17T23:00:32;9.48;;;6.28;;
14001;SDS011;7076;51.280;12.584;2023-08-17T23:05:35;7.05;;;6.32;;
14001;SDS011;7076;51.280;12.584;2023-08-17T23:10:39;7.45;;;5.90;;
14001;SDS011;7076;51.280;12.584;2023-08-17T23:15:42;6.32;;;5.72;;
14001;SDS011;7076;51.280;12.584;2023-08-17T23:20:46;7.35;;;5.50;;
14001;SDS011;7076;51.280;12.584;2023-08-17T23:25:51;9.65;;;5.65;;
14001;SDS011;7076;51.280;12.584;2023-08-17T23:30:56;7.85;;;5.68;;
14001;SDS011;7076;51.280;12.584;2023-08-17T23:35:59;6.47;;;5.88;;
14001;SDS011;7076;51.280;12.584;2023-08-17T23:41:04;6.32;;;5.75;;
14001;SDS011;7076;51.280;12.584;2023-08-17T23:46:06;6.03;;;5.53;;
14001;SDS011;7076;51.280;12.584;2023-08-17T23:51:09;6.63;;;5.47;;
14001;SDS011;7076;51.280;12.584;2023-08-17T23:56:14;7.22;;;5.97;;
